Harrisville, Rhode Island
Current Conditions -  °F | °C
As of 8:35 AM on Sunday 21 Dec 2014 (Local Time) from KSFZ Reporting Station
Overcast Overcast  
Wind Chill: 22°   Ceiling: 600
Heat Index: 30°   Visibility: 6mi
Dew Point: 23°   Wind: 9mph
Humidity: 75%   Direction: 10°N
Pressure: 30.28"   Gusts: NA
Location:  41.97°N, 71.68°W
Report Text: KSFZ 211335Z 01008KT 6SM OVC006 M01/M05 A3028 RMK AO1
Loading
Personal Weather Stations






























Interactive Weather Map New forecast layout! Learn more

10-Day Weather Forecast

Advertisements
Track Severe Weather on mobile